sensor_id;sensor_type;location;lat;lon;timestamp;temperature;humidity
13203;DHT22;6666;51.626;7.530;2022-11-11T00:02:25;9.20;99.90
13203;DHT22;6666;51.626;7.530;2022-11-11T00:05:14;9.10;99.90
13203;DHT22;6666;51.626;7.530;2022-11-11T00:08:01;9.10;99.90
13203;DHT22;6666;51.626;7.530;2022-11-11T00:10:47;9.10;99.90
13203;DHT22;6666;51.626;7.530;2022-11-11T00:13:34;9.10;99.90
13203;DHT22;6666;51.626;7.530;2022-11-11T00:16:22;9.20;99.90
13203;DHT22;6666;51.626;7.530;2022-11-11T00:19:09;9.30;99.90
13203;DHT22;6666;51.626;7.530;2022-11-11T00:22:21;9.30;99.90
13203;DHT22;6666;51.626;7.530;2022-11-11T00:25:25;9.30;99.90
13203;DHT22;6666;51.626;7.530;2022-11-11T00:28:12;9.40;99.90
13203;DHT22;6666;51.626;7.530;2022-11-11T00:31:03;9.50;99.90
13203;DHT22;6666;51.626;7.530;2022-11-11T00:33:51;9.50;99.90
13203;DHT22;6666;51.626;7.530;2022-11-11T00:36:38;9.50;99.90
13203;DHT22;6666;51.626;7.530;2022-11-11T00:39:30;9.50;99.90
13203;DHT22;6666;51.626;7.530;2022-11-11T00:42:17;9.50;99.90
13203;DHT22;6666;51.626;7.530;2022-11-11T00:45:05;9.40;99.90
13203;DHT22;6666;51.626;7.530;2022-11-11T00:47:52;9.40;99.90
13203;DHT22;6666;51.626;7.530;2022-11-11T00:50:56;9.30;99.90
13203;DHT22;6666;51.626;7.530;2022-11-11T00:53:46;9.30;99.90
13203;DHT22;6666;51.626;7.530;2022-11-11T00:56:34;9.30;99.90
13203;DHT22;6666;51.626;7.530;2022-11-11T00:59:21;9.30;99.90
13203;DHT22;6666;51.626;7.530;2022-11-11T01:02:08;9.20;99.90
13203;DHT22;6666;51.626;7.530;2022-11-11T01:04:55;9.20;99.90
13203;DHT22;6666;51.626;7.530;2022-11-11T01:07:42;9.20;99.90
13203;DHT22;6666;51.626;7.530;2022-11-11T01:10:29;9.20;99.90
13203;DHT22;6666;51.626;7.530;2022-11-11T01:13:29;9.20;99.90
13203;DHT22;6666;51.626;7.530;2022-11-11T01:16:18;9.20;99.90
13203;DHT22;6666;51.626;7.530;2022-11-11T01:19:05;9.20;99.90
13203;DHT22;6666;51.626;7.530;2022-11-11T01:21:53;9.20;99.90
13203;DHT22;6666;51.626;7.530;2022-11-11T01:24:40;9.20;99.90
13203;DHT22;6666;51.626;7.530;2022-11-11T01:27:27;9.20;99.90
13203;DHT22;6666;51.626;7.530;2022-11-11T01:30:16;9.10;99.90
13203;DHT22;6666;51.626;7.530;2022-11-11T01:33:02;9.10;99.90
13203;DHT22;6666;51.626;7.530;2022-11-11T01:35:49;9.00;99.90
13203;DHT22;6666;51.626;7.530;2022-11-11T01:38:36;9.00;99.90
13203;DHT22;6666;51.626;7.530;2022-11-11T01:41:25;9.00;99.90
13203;DHT22;6666;51.626;7.530;2022-11-11T01:44:41;8.90;99.90
13203;DHT22;6666;51.626;7.530;2022-11-11T01:47:29;8.90;99.90
13203;DHT22;6666;51.626;7.530;2022-11-11T01:50:58;9.00;99.90
13203;DHT22;6666;51.626;7.530;2022-11-11T01:53:45;9.10;99.90
13203;DHT22;6666;51.626;7.530;2022-11-11T01:56:33;9.10;99.90
13203;DHT22;6666;51.626;7.530;2022-11-11T01:59:20;9.00;99.90
13203;DHT22;6666;51.626;7.530;2022-11-11T02:02:16;9.00;99.90
13203;DHT22;6666;51.626;7.530;2022-11-11T02:05:09;9.00;99.90
13203;DHT22;6666;51.626;7.530;2022-11-11T02:08:23;9.10;99.90
13203;DHT22;6666;51.626;7.530;2022-11-11T02:11:21;9.10;99.90
13203;DHT22;6666;51.626;7.530;2022-11-11T02:14:23;9.10;99.90
13203;DHT22;6666;51.626;7.530;2022-11-11T02:17:28;9.00;99.90
13203;DHT22;6666;51.626;7.530;2022-11-11T02:20:19;9.00;99.90
13203;DHT22;6666;51.626;7.530;2022-11-11T02:23:10;9.10;99.90
13203;DHT22;6666;51.626;7.530;2022-11-11T02:26:02;9.10;99.90
13203;DHT22;6666;51.626;7.530;2022-11-11T02:28:50;9.20;99.90
13203;DHT22;6666;51.626;7.530;2022-11-11T02:31:38;9.10;99.90
13203;DHT22;6666;51.626;7.530;2022-11-11T02:34:29;9.20;99.90
13203;DHT22;6666;51.626;7.530;2022-11-11T02:37:19;9.30;99.90
13203;DHT22;6666;51.626;7.530;2022-11-11T02:40:07;9.20;99.90
13203;DHT22;6666;51.626;7.530;2022-11-11T02:42:55;9.20;99.90
13203;DHT22;6666;51.626;7.530;2022-11-11T02:45:42;9.20;99.90
13203;DHT22;6666;51.626;7.530;2022-11-11T02:48:29;9.30;99.90
13203;DHT22;6666;51.626;7.530;2022-11-11T02:51:17;9.20;99.90
13203;DHT22;6666;51.626;7.530;2022-11-11T02:54:04;9.20;99.90
13203;DHT22;6666;51.626;7.530;2022-11-11T02:56:51;9.30;99.90
13203;DHT22;6666;51.626;7.530;2022-11-11T02:59:56;9.30;99.90
13203;DHT22;6666;51.626;7.530;2022-11-11T03:02:43;9.30;99.90
13203;DHT22;6666;51.626;7.530;2022-11-11T03:05:30;9.30;99.90
13203;DHT22;6666;51.626;7.530;2022-11-11T03:08:18;9.20;99.90
13203;DHT22;6666;51.626;7.530;2022-11-11T03:11:05;9.20;99.90
13203;DHT22;6666;51.626;7.530;2022-11-11T03:13:52;9.20;99.90
13203;DHT22;6666;51.626;7.530;2022-11-11T03:16:41;9.10;99.90
13203;DHT22;6666;51.626;7.530;2022-11-11T03:19:45;9.10;99.90
13203;DHT22;6666;51.626;7.530;2022-11-11T03:22:33;9.00;99.90
13203;DHT22;6666;51.626;7.530;2022-11-11T03:25:41;8.90;99.90
13203;DHT22;6666;51.626;7.530;2022-11-11T03:28:28;9.00;99.90
13203;DHT22;6666;51.626;7.530;2022-11-11T03:31:14;9.00;99.90
13203;DHT22;6666;51.626;7.530;2022-11-11T03:34:03;9.00;99.90
13203;DHT22;6666;51.626;7.530;2022-11-11T03:37:04;9.00;99.90
13203;DHT22;6666;51.626;7.530;2022-11-11T03:40:10;9.10;99.90
13203;DHT22;6666;51.626;7.530;2022-11-11T03:42:57;9.10;99.90
13203;DHT22;6666;51.626;7.530;2022-11-11T03:45:49;9.20;99.90
13203;DHT22;6666;51.626;7.530;2022-11-11T03:48:36;9.20;99.90
13203;DHT22;6666;51.626;7.530;2022-11-11T03:51:26;9.20;99.90
13203;DHT22;6666;51.626;7.530;2022-11-11T03:54:13;9.30;99.90
13203;DHT22;6666;51.626;7.530;2022-11-11T03:57:00;9.20;99.90
13203;DHT22;6666;51.626;7.530;2022-11-11T04:00:05;9.20;99.90
13203;DHT22;6666;51.626;7.530;2022-11-11T04:03:02;9.10;99.90
13203;DHT22;6666;51.626;7.530;2022-11-11T04:06:04;9.10;99.90
13203;DHT22;6666;51.626;7.530;2022-11-11T04:09:10;9.00;99.90
13203;DHT22;6666;51.626;7.530;2022-11-11T04:12:30;8.90;99.90
13203;DHT22;6666;51.626;7.530;2022-11-11T04:15:37;8.90;99.90
13203;DHT22;6666;51.626;7.530;2022-11-11T04:18:41;8.90;99.90
13203;DHT22;6666;51.626;7.530;2022-11-11T04:21:45;8.90;99.90
13203;DHT22;6666;51.626;7.530;2022-11-11T04:24:35;8.90;99.90
13203;DHT22;6666;51.626;7.530;2022-11-11T04:27:55;8.80;99.90
13203;DHT22;6666;51.626;7.530;2022-11-11T04:30:56;8.80;99.90
13203;DHT22;6666;51.626;7.530;2022-11-11T04:33:42;8.80;99.90
13203;DHT22;6666;51.626;7.530;2022-11-11T04:36:28;8.90;99.90
13203;DHT22;6666;51.626;7.530;2022-11-11T04:39:16;8.90;99.90
13203;DHT22;6666;51.626;7.530;2022-11-11T04:42:22;9.00;99.90
13203;DHT22;6666;51.626;7.530;2022-11-11T04:45:10;9.10;99.90
13203;DHT22;6666;51.626;7.530;2022-11-11T04:48:16;9.10;99.90
13203;DHT22;6666;51.626;7.530;2022-11-11T04:51:04;9.10;99.90
13203;DHT22;6666;51.626;7.530;2022-11-11T04:53:50;9.10;99.90
13203;DHT22;6666;51.626;7.530;2022-11-11T04:56:37;9.10;99.90
13203;DHT22;6666;51.626;7.530;2022-11-11T04:59:42;9.10;99.90
13203;DHT22;6666;51.626;7.530;2022-11-11T05:02:29;9.10;99.90
13203;DHT22;6666;51.626;7.530;2022-11-11T05:05:33;9.00;99.90
13203;DHT22;6666;51.626;7.530;2022-11-11T05:08:46;8.90;99.90
13203;DHT22;6666;51.626;7.530;2022-11-11T05:11:41;8.80;99.90
13203;DHT22;6666;51.626;7.530;2022-11-11T05:14:29;8.80;99.90
13203;DHT22;6666;51.626;7.530;2022-11-11T05:17:34;8.70;99.90
13203;DHT22;6666;51.626;7.530;2022-11-11T05:20:38;8.60;99.90
13203;DHT22;6666;51.626;7.530;2022-11-11T05:23:43;8.50;99.90
13203;DHT22;6666;51.626;7.530;2022-11-11T05:26:47;8.40;99.90
13203;DHT22;6666;51.626;7.530;2022-11-11T05:29:33;8.30;99.90
13203;DHT22;6666;51.626;7.530;2022-11-11T05:32:21;8.40;99.90
13203;DHT22;6666;51.626;7.530;2022-11-11T05:35:10;8.50;99.90
13203;DHT22;6666;51.626;7.530;2022-11-11T05:38:01;8.50;99.90
13203;DHT22;6666;51.626;7.530;2022-11-11T05:41:06;8.40;99.90
13203;DHT22;6666;51.626;7.530;2022-11-11T05:43:53;8.40;99.90
13203;DHT22;6666;51.626;7.530;2022-11-11T05:46:40;8.40;99.90
13203;DHT22;6666;51.626;7.530;2022-11-11T05:49:27;8.40;99.90
13203;DHT22;6666;51.626;7.530;2022-11-11T05:52:16;8.40;99.90
13203;DHT22;6666;51.626;7.530;2022-11-11T05:55:03;8.30;99.90
13203;DHT22;6666;51.626;7.530;2022-11-11T05:57:50;8.30;99.90
13203;DHT22;6666;51.626;7.530;2022-11-11T06:00:37;8.30;99.90
13203;DHT22;6666;51.626;7.530;2022-11-11T06:03:24;8.40;99.90
13203;DHT22;6666;51.626;7.530;2022-11-11T06:06:12;8.20;99.90
13203;DHT22;6666;51.626;7.530;2022-11-11T06:09:01;8.20;99.90
13203;DHT22;6666;51.626;7.530;2022-11-11T06:11:47;8.20;99.90
13203;DHT22;6666;51.626;7.530;2022-11-11T06:14:34;8.30;99.90
13203;DHT22;6666;51.626;7.530;2022-11-11T06:17:21;8.40;99.90
13203;DHT22;6666;51.626;7.530;2022-11-11T06:20:08;8.40;99.90
13203;DHT22;6666;51.626;7.530;2022-11-11T06:22:55;8.40;99.90
13203;DHT22;6666;51.626;7.530;2022-11-11T06:25:43;8.40;99.90
13203;DHT22;6666;51.626;7.530;2022-11-11T06:28:49;8.50;99.90
13203;DHT22;6666;51.626;7.530;2022-11-11T06:31:36;8.60;99.90
13203;DHT22;6666;51.626;7.530;2022-11-11T06:34:22;8.60;99.90
13203;DHT22;6666;51.626;7.530;2022-11-11T06:37:09;8.50;99.90
13203;DHT22;6666;51.626;7.530;2022-11-11T06:39:56;8.50;99.90
13203;DHT22;6666;51.626;7.530;2022-11-11T06:42:44;8.50;99.90
13203;DHT22;6666;51.626;7.530;2022-11-11T06:45:31;8.60;99.90
13203;DHT22;6666;51.626;7.530;2022-11-11T06:48:19;8.60;99.90
13203;DHT22;6666;51.626;7.530;2022-11-11T06:51:06;8.70;99.90
13203;DHT22;6666;51.626;7.530;2022-11-11T06:53:55;8.70;99.90
13203;DHT22;6666;51.626;7.530;2022-11-11T06:56:41;8.90;99.90
13203;DHT22;6666;51.626;7.530;2022-11-11T06:59:30;8.90;99.90
13203;DHT22;6666;51.626;7.530;2022-11-11T07:02:16;8.90;99.90
13203;DHT22;6666;51.626;7.530;2022-11-11T07:05:03;8.90;99.90
13203;DHT22;6666;51.626;7.530;2022-11-11T07:07:50;8.90;99.90
13203;DHT22;6666;51.626;7.530;2022-11-11T07:10:38;8.90;99.90
13203;DHT22;6666;51.626;7.530;2022-11-11T07:13:25;8.90;99.90
13203;DHT22;6666;51.626;7.530;2022-11-11T07:16:14;9.00;99.90
13203;DHT22;6666;51.626;7.530;2022-11-11T07:19:00;9.10;99.90
13203;DHT22;6666;51.626;7.530;2022-11-11T07:21:47;9.10;99.90
13203;DHT22;6666;51.626;7.530;2022-11-11T07:24:34;9.20;99.90
13203;DHT22;6666;51.626;7.530;2022-11-11T07:27:20;9.30;99.90
13203;DHT22;6666;51.626;7.530;2022-11-11T07:30:08;9.40;99.90
13203;DHT22;6666;51.626;7.530;2022-11-11T07:32:57;9.50;99.90
13203;DHT22;6666;51.626;7.530;2022-11-11T07:35:44;9.50;99.90
13203;DHT22;6666;51.626;7.530;2022-11-11T07:38:30;9.50;99.90
13203;DHT22;6666;51.626;7.530;2022-11-11T07:41:17;9.70;99.90
13203;DHT22;6666;51.626;7.530;2022-11-11T07:44:03;9.70;99.90
13203;DHT22;6666;51.626;7.530;2022-11-11T07:46:50;9.80;99.90
13203;DHT22;6666;51.626;7.530;2022-11-11T07:49:39;9.80;99.90
13203;DHT22;6666;51.626;7.530;2022-11-11T07:52:26;9.80;99.90
13203;DHT22;6666;51.626;7.530;2022-11-11T07:55:13;9.90;99.90
13203;DHT22;6666;51.626;7.530;2022-11-11T07:58:00;10.00;99.90
13203;DHT22;6666;51.626;7.530;2022-11-11T08:00:46;10.10;99.90
13203;DHT22;6666;51.626;7.530;2022-11-11T08:03:33;10.10;99.90
13203;DHT22;6666;51.626;7.530;2022-11-11T08:06:35;10.10;99.90
13203;DHT22;6666;51.626;7.530;2022-11-11T08:09:22;10.20;99.90
13203;DHT22;6666;51.626;7.530;2022-11-11T08:12:09;10.30;99.90
13203;DHT22;6666;51.626;7.530;2022-11-11T08:15:13;10.30;99.90
13203;DHT22;6666;51.626;7.530;2022-11-11T08:17:59;10.40;99.90
13203;DHT22;6666;51.626;7.530;2022-11-11T08:20:46;10.50;99.90
13203;DHT22;6666;51.626;7.530;2022-11-11T08:23:40;10.50;99.90
13203;DHT22;6666;51.626;7.530;2022-11-11T08:26:47;10.60;99.90
13203;DHT22;6666;51.626;7.530;2022-11-11T08:29:34;10.70;99.90
13203;DHT22;6666;51.626;7.530;2022-11-11T08:32:21;10.70;99.90
13203;DHT22;6666;51.626;7.530;2022-11-11T08:35:08;10.80;99.90
13203;DHT22;6666;51.626;7.530;2022-11-11T08:37:55;10.80;99.90
13203;DHT22;6666;51.626;7.530;2022-11-11T08:40:43;10.90;99.90
13203;DHT22;6666;51.626;7.530;2022-11-11T08:43:29;11.00;99.90
13203;DHT22;6666;51.626;7.530;2022-11-11T08:46:22;11.00;99.90
13203;DHT22;6666;51.626;7.530;2022-11-11T08:49:10;11.10;99.90
13203;DHT22;6666;51.626;7.530;2022-11-11T08:51:57;11.10;99.90
13203;DHT22;6666;51.626;7.530;2022-11-11T08:54:44;11.20;99.90
13203;DHT22;6666;51.626;7.530;2022-11-11T08:57:32;11.20;99.90
13203;DHT22;6666;51.626;7.530;2022-11-11T09:00:19;11.40;99.90
13203;DHT22;6666;51.626;7.530;2022-11-11T09:03:08;11.50;99.90
13203;DHT22;6666;51.626;7.530;2022-11-11T09:05:56;11.50;99.90
13203;DHT22;6666;51.626;7.530;2022-11-11T09:08:42;11.50;99.90
13203;DHT22;6666;51.626;7.530;2022-11-11T09:11:30;11.60;99.90
13203;DHT22;6666;51.626;7.530;2022-11-11T09:14:22;11.70;99.90
13203;DHT22;6666;51.626;7.530;2022-11-11T09:17:09;11.70;99.90
13203;DHT22;6666;51.626;7.530;2022-11-11T09:19:55;11.80;99.90
13203;DHT22;6666;51.626;7.530;2022-11-11T09:22:42;11.90;99.90
13203;DHT22;6666;51.626;7.530;2022-11-11T09:25:29;12.10;99.90
13203;DHT22;6666;51.626;7.530;2022-11-11T09:28:16;12.10;99.90
13203;DHT22;6666;51.626;7.530;2022-11-11T09:31:04;12.20;99.90
13203;DHT22;6666;51.626;7.530;2022-11-11T09:34:12;12.20;99.90
13203;DHT22;6666;51.626;7.530;2022-11-11T09:36:59;12.30;99.90
13203;DHT22;6666;51.626;7.530;2022-11-11T09:39:46;12.30;99.90
13203;DHT22;6666;51.626;7.530;2022-11-11T09:42:39;12.40;99.90
13203;DHT22;6666;51.626;7.530;2022-11-11T09:45:34;12.40;99.90
13203;DHT22;6666;51.626;7.530;2022-11-11T09:48:34;12.40;99.90
13203;DHT22;6666;51.626;7.530;2022-11-11T09:51:24;12.40;99.90
13203;DHT22;6666;51.626;7.530;2022-11-11T09:54:17;12.40;99.90
13203;DHT22;6666;51.626;7.530;2022-11-11T09:57:13;12.40;99.90
13203;DHT22;6666;51.626;7.530;2022-11-11T10:00:04;12.40;99.90
13203;DHT22;6666;51.626;7.530;2022-11-11T10:02:54;12.40;99.90
13203;DHT22;6666;51.626;7.530;2022-11-11T10:05:48;12.50;99.90
13203;DHT22;6666;51.626;7.530;2022-11-11T10:08:43;12.40;99.90
13203;DHT22;6666;51.626;7.530;2022-11-11T10:11:41;12.50;99.90
13203;DHT22;6666;51.626;7.530;2022-11-11T10:14:32;12.60;99.90
13203;DHT22;6666;51.626;7.530;2022-11-11T10:17:30;12.60;99.90
13203;DHT22;6666;51.626;7.530;2022-11-11T10:20:21;12.70;99.90
13203;DHT22;6666;51.626;7.530;2022-11-11T10:23:14;12.60;99.90
13203;DHT22;6666;51.626;7.530;2022-11-11T10:26:04;12.60;99.90
13203;DHT22;6666;51.626;7.530;2022-11-11T10:28:52;12.60;99.90
13203;DHT22;6666;51.626;7.530;2022-11-11T10:31:40;12.60;99.90
13203;DHT22;6666;51.626;7.530;2022-11-11T10:34:31;12.70;99.90
13203;DHT22;6666;51.626;7.530;2022-11-11T10:37:22;12.70;99.90
13203;DHT22;6666;51.626;7.530;2022-11-11T10:40:17;12.80;99.90
13203;DHT22;6666;51.626;7.530;2022-11-11T10:43:17;12.80;99.90
13203;DHT22;6666;51.626;7.530;2022-11-11T10:46:11;12.80;99.90
13203;DHT22;6666;51.626;7.530;2022-11-11T10:49:02;12.90;99.90
13203;DHT22;6666;51.626;7.530;2022-11-11T10:51:57;13.00;99.90
13203;DHT22;6666;51.626;7.530;2022-11-11T10:54:49;13.00;99.90
13203;DHT22;6666;51.626;7.530;2022-11-11T10:57:41;13.00;99.90
13203;DHT22;6666;51.626;7.530;2022-11-11T11:00:32;13.00;99.90
13203;DHT22;6666;51.626;7.530;2022-11-11T11:03:31;13.10;99.90
13203;DHT22;6666;51.626;7.530;2022-11-11T11:06:22;13.10;99.90
13203;DHT22;6666;51.626;7.530;2022-11-11T11:09:19;13.10;99.90
13203;DHT22;6666;51.626;7.530;2022-11-11T11:12:12;13.10;99.90
13203;DHT22;6666;51.626;7.530;2022-11-11T11:15:05;13.10;99.90
13203;DHT22;6666;51.626;7.530;2022-11-11T11:17:57;13.10;99.90
13203;DHT22;6666;51.626;7.530;2022-11-11T11:20:55;13.20;99.90
13203;DHT22;6666;51.626;7.530;2022-11-11T11:23:44;13.30;99.90
13203;DHT22;6666;51.626;7.530;2022-11-11T11:26:42;13.40;99.90
13203;DHT22;6666;51.626;7.530;2022-11-11T11:29:32;13.40;99.90
13203;DHT22;6666;51.626;7.530;2022-11-11T11:32:27;13.50;99.90
13203;DHT22;6666;51.626;7.530;2022-11-11T11:35:34;13.50;99.90
13203;DHT22;6666;51.626;7.530;2022-11-11T11:38:39;13.60;99.90
13203;DHT22;6666;51.626;7.530;2022-11-11T11:41:37;13.60;99.90
13203;DHT22;6666;51.626;7.530;2022-11-11T11:44:25;13.60;99.90
13203;DHT22;6666;51.626;7.530;2022-11-11T11:47:22;13.60;99.90
13203;DHT22;6666;51.626;7.530;2022-11-11T11:50:28;13.70;99.90
13203;DHT22;6666;51.626;7.530;2022-11-11T11:53:38;13.70;99.90
13203;DHT22;6666;51.626;7.530;2022-11-11T11:56:33;13.80;99.90
13203;DHT22;6666;51.626;7.530;2022-11-11T11:59:27;13.80;99.90
13203;DHT22;6666;51.626;7.530;2022-11-11T12:02:39;13.80;99.90
13203;DHT22;6666;51.626;7.530;2022-11-11T12:05:34;13.90;99.90
13203;DHT22;6666;51.626;7.530;2022-11-11T12:08:36;14.00;99.90
13203;DHT22;6666;51.626;7.530;2022-11-11T12:11:31;14.20;99.90
13203;DHT22;6666;51.626;7.530;2022-11-11T12:14:55;14.10;99.90
13203;DHT22;6666;51.626;7.530;2022-11-11T12:17:54;14.20;99.90
13203;DHT22;6666;51.626;7.530;2022-11-11T12:20:50;14.20;99.90
13203;DHT22;6666;51.626;7.530;2022-11-11T12:23:57;14.20;99.90
13203;DHT22;6666;51.626;7.530;2022-11-11T12:26:51;14.20;99.90
13203;DHT22;6666;51.626;7.530;2022-11-11T12:29:55;14.30;99.90
13203;DHT22;6666;51.626;7.530;2022-11-11T12:32:57;14.20;99.90
13203;DHT22;6666;51.626;7.530;2022-11-11T12:35:56;14.20;99.90
13203;DHT22;6666;51.626;7.530;2022-11-11T12:38:56;14.30;99.90
13203;DHT22;6666;51.626;7.530;2022-11-11T12:41:55;14.30;99.90
13203;DHT22;6666;51.626;7.530;2022-11-11T12:44:54;14.30;99.90
13203;DHT22;6666;51.626;7.530;2022-11-11T12:47:57;14.30;99.90
13203;DHT22;6666;51.626;7.530;2022-11-11T12:50:50;14.40;99.90
13203;DHT22;6666;51.626;7.530;2022-11-11T12:53:45;14.30;99.90
13203;DHT22;6666;51.626;7.530;2022-11-11T12:56:39;14.30;99.90
13203;DHT22;6666;51.626;7.530;2022-11-11T12:59:42;14.30;99.90
13203;DHT22;6666;51.626;7.530;2022-11-11T13:03:12;14.30;99.90
13203;DHT22;6666;51.626;7.530;2022-11-11T13:06:07;14.40;99.90
13203;DHT22;6666;51.626;7.530;2022-11-11T13:09:23;14.30;99.90
13203;DHT22;6666;51.626;7.530;2022-11-11T13:12:17;14.20;99.90
13203;DHT22;6666;51.626;7.530;2022-11-11T13:15:13;14.20;99.90
13203;DHT22;6666;51.626;7.530;2022-11-11T13:18:07;14.20;99.90
13203;DHT22;6666;51.626;7.530;2022-11-11T13:20:58;14.20;99.90
13203;DHT22;6666;51.626;7.530;2022-11-11T13:23:46;14.20;99.90
13203;DHT22;6666;51.626;7.530;2022-11-11T13:26:37;14.20;99.90
13203;DHT22;6666;51.626;7.530;2022-11-11T13:32:47;14.20;99.90
13203;DHT22;6666;51.626;7.530;2022-11-11T13:35:41;14.20;99.90
13203;DHT22;6666;51.626;7.530;2022-11-11T13:38:31;14.10;99.90
13203;DHT22;6666;51.626;7.530;2022-11-11T13:41:22;14.20;99.90
13203;DHT22;6666;51.626;7.530;2022-11-11T13:44:20;14.20;99.90
13203;DHT22;6666;51.626;7.530;2022-11-11T13:47:14;14.20;99.90
13203;DHT22;6666;51.626;7.530;2022-11-11T13:50:05;14.20;99.90
13203;DHT22;6666;51.626;7.530;2022-11-11T13:52:58;14.20;99.90
13203;DHT22;6666;51.626;7.530;2022-11-11T13:55:46;14.20;99.90
13203;DHT22;6666;51.626;7.530;2022-11-11T13:58:36;14.20;99.90
13203;DHT22;6666;51.626;7.530;2022-11-11T14:01:24;14.20;99.90
13203;DHT22;6666;51.626;7.530;2022-11-11T14:04:26;14.20;99.90
13203;DHT22;6666;51.626;7.530;2022-11-11T14:07:47;14.20;99.90
13203;DHT22;6666;51.626;7.530;2022-11-11T14:10:52;14.20;99.90
13203;DHT22;6666;51.626;7.530;2022-11-11T14:13:40;14.20;99.90
13203;DHT22;6666;51.626;7.530;2022-11-11T14:16:57;14.20;99.90
13203;DHT22;6666;51.626;7.530;2022-11-11T14:19:45;14.20;99.90
13203;DHT22;6666;51.626;7.530;2022-11-11T14:22:33;14.20;99.90
13203;DHT22;6666;51.626;7.530;2022-11-11T14:25:23;14.10;99.90
13203;DHT22;6666;51.626;7.530;2022-11-11T14:28:21;14.00;99.90
13203;DHT22;6666;51.626;7.530;2022-11-11T14:31:34;14.00;99.90
13203;DHT22;6666;51.626;7.530;2022-11-11T14:34:38;13.90;99.90
13203;DHT22;6666;51.626;7.530;2022-11-11T14:37:42;13.80;99.90
13203;DHT22;6666;51.626;7.530;2022-11-11T14:40:37;13.80;99.90
13203;DHT22;6666;51.626;7.530;2022-11-11T14:43:37;13.70;99.90
13203;DHT22;6666;51.626;7.530;2022-11-11T14:46:24;13.60;99.90
13203;DHT22;6666;51.626;7.530;2022-11-11T14:49:43;13.60;99.90
13203;DHT22;6666;51.626;7.530;2022-11-11T14:52:34;13.50;99.90
13203;DHT22;6666;51.626;7.530;2022-11-11T14:55:26;13.40;99.90
13203;DHT22;6666;51.626;7.530;2022-11-11T14:58:15;13.30;99.90
13203;DHT22;6666;51.626;7.530;2022-11-11T15:01:12;13.30;99.90
13203;DHT22;6666;51.626;7.530;2022-11-11T15:04:02;13.20;99.90
13203;DHT22;6666;51.626;7.530;2022-11-11T15:06:52;13.10;99.90
13203;DHT22;6666;51.626;7.530;2022-11-11T15:10:00;13.00;99.90
13203;DHT22;6666;51.626;7.530;2022-11-11T15:16:27;12.70;99.90
13203;DHT22;6666;51.626;7.530;2022-11-11T15:19:31;12.70;99.90
13203;DHT22;6666;51.626;7.530;2022-11-11T15:22:36;12.60;99.90
13203;DHT22;6666;51.626;7.530;2022-11-11T15:25:36;12.50;99.90
13203;DHT22;6666;51.626;7.530;2022-11-11T15:29:02;12.50;99.90
13203;DHT22;6666;51.626;7.530;2022-11-11T15:31:58;12.40;99.90
13203;DHT22;6666;51.626;7.530;2022-11-11T15:34:53;12.30;99.90
13203;DHT22;6666;51.626;7.530;2022-11-11T15:37:46;12.10;99.90
13203;DHT22;6666;51.626;7.530;2022-11-11T15:40:44;11.90;99.90
13203;DHT22;6666;51.626;7.530;2022-11-11T15:43:32;11.80;99.90
13203;DHT22;6666;51.626;7.530;2022-11-11T15:46:24;11.70;99.90
13203;DHT22;6666;51.626;7.530;2022-11-11T15:49:14;11.70;99.90
13203;DHT22;6666;51.626;7.530;2022-11-11T15:52:01;11.50;99.90
13203;DHT22;6666;51.626;7.530;2022-11-11T15:54:48;11.30;99.90
13203;DHT22;6666;51.626;7.530;2022-11-11T15:57:35;11.20;99.90
13203;DHT22;6666;51.626;7.530;2022-11-11T16:00:29;11.10;99.90
13203;DHT22;6666;51.626;7.530;2022-11-11T16:03:19;11.00;99.90
13203;DHT22;6666;51.626;7.530;2022-11-11T16:06:10;10.90;99.90
13203;DHT22;6666;51.626;7.530;2022-11-11T16:08:57;10.80;99.90
13203;DHT22;6666;51.626;7.530;2022-11-11T16:11:44;10.70;99.90
13203;DHT22;6666;51.626;7.530;2022-11-11T16:14:38;10.60;99.90
13203;DHT22;6666;51.626;7.530;2022-11-11T16:17:31;10.50;99.90
13203;DHT22;6666;51.626;7.530;2022-11-11T16:20:26;10.50;99.90
13203;DHT22;6666;51.626;7.530;2022-11-11T16:23:16;10.50;99.90
13203;DHT22;6666;51.626;7.530;2022-11-11T16:26:05;10.50;99.90
13203;DHT22;6666;51.626;7.530;2022-11-11T16:28:54;10.30;99.90
13203;DHT22;6666;51.626;7.530;2022-11-11T16:31:42;10.30;99.90
13203;DHT22;6666;51.626;7.530;2022-11-11T16:34:39;10.30;99.90
13203;DHT22;6666;51.626;7.530;2022-11-11T16:37:27;10.20;99.90
13203;DHT22;6666;51.626;7.530;2022-11-11T16:40:26;10.20;99.90
13203;DHT22;6666;51.626;7.530;2022-11-11T16:43:20;10.00;99.90
13203;DHT22;6666;51.626;7.530;2022-11-11T16:46:12;9.90;99.90
13203;DHT22;6666;51.626;7.530;2022-11-11T16:49:00;9.80;99.90
13203;DHT22;6666;51.626;7.530;2022-11-11T16:52:08;9.80;99.90
13203;DHT22;6666;51.626;7.530;2022-11-11T16:54:59;9.70;99.90
13203;DHT22;6666;51.626;7.530;2022-11-11T16:57:47;9.70;99.90
13203;DHT22;6666;51.626;7.530;2022-11-11T17:00:35;9.50;99.90
13203;DHT22;6666;51.626;7.530;2022-11-11T17:03:23;9.40;99.90
13203;DHT22;6666;51.626;7.530;2022-11-11T17:06:11;9.50;99.90
13203;DHT22;6666;51.626;7.530;2022-11-11T17:08:58;9.40;99.90
13203;DHT22;6666;51.626;7.530;2022-11-11T17:11:45;9.30;99.90
13203;DHT22;6666;51.626;7.530;2022-11-11T17:14:35;9.30;99.90
13203;DHT22;6666;51.626;7.530;2022-11-11T17:17:22;9.20;99.90
13203;DHT22;6666;51.626;7.530;2022-11-11T17:20:11;9.10;99.90
13203;DHT22;6666;51.626;7.530;2022-11-11T17:22:59;9.10;99.90
13203;DHT22;6666;51.626;7.530;2022-11-11T17:25:53;9.10;99.90
13203;DHT22;6666;51.626;7.530;2022-11-11T17:28:41;9.00;99.90
13203;DHT22;6666;51.626;7.530;2022-11-11T17:31:29;9.00;99.90
13203;DHT22;6666;51.626;7.530;2022-11-11T17:34:15;8.90;99.90
13203;DHT22;6666;51.626;7.530;2022-11-11T17:37:02;8.80;99.90
13203;DHT22;6666;51.626;7.530;2022-11-11T17:39:49;8.70;99.90
13203;DHT22;6666;51.626;7.530;2022-11-11T17:42:36;8.60;99.90
13203;DHT22;6666;51.626;7.530;2022-11-11T17:45:22;8.60;99.90
13203;DHT22;6666;51.626;7.530;2022-11-11T17:48:11;8.60;99.90
13203;DHT22;6666;51.626;7.530;2022-11-11T17:50:57;8.50;99.90
13203;DHT22;6666;51.626;7.530;2022-11-11T17:53:44;8.50;99.90
13203;DHT22;6666;51.626;7.530;2022-11-11T17:56:31;8.40;99.90
13203;DHT22;6666;51.626;7.530;2022-11-11T17:59:17;8.40;99.90
13203;DHT22;6666;51.626;7.530;2022-11-11T18:02:04;8.40;99.90
13203;DHT22;6666;51.626;7.530;2022-11-11T18:04:52;8.30;99.90
13203;DHT22;6666;51.626;7.530;2022-11-11T18:07:42;8.30;99.90
13203;DHT22;6666;51.626;7.530;2022-11-11T18:10:29;8.30;99.90
13203;DHT22;6666;51.626;7.530;2022-11-11T18:13:16;8.10;99.90
13203;DHT22;6666;51.626;7.530;2022-11-11T18:16:04;8.10;99.90
13203;DHT22;6666;51.626;7.530;2022-11-11T18:18:52;8.00;99.90
13203;DHT22;6666;51.626;7.530;2022-11-11T18:21:45;7.90;99.90
13203;DHT22;6666;51.626;7.530;2022-11-11T18:24:32;7.90;99.90
13203;DHT22;6666;51.626;7.530;2022-11-11T18:27:19;7.80;99.90
13203;DHT22;6666;51.626;7.530;2022-11-11T18:30:07;7.80;99.90
13203;DHT22;6666;51.626;7.530;2022-11-11T18:32:54;7.90;99.90
13203;DHT22;6666;51.626;7.530;2022-11-11T18:35:40;7.80;99.90
13203;DHT22;6666;51.626;7.530;2022-11-11T18:38:29;7.80;99.90
13203;DHT22;6666;51.626;7.530;2022-11-11T18:41:17;7.60;99.90
13203;DHT22;6666;51.626;7.530;2022-11-11T18:44:05;7.60;99.90
13203;DHT22;6666;51.626;7.530;2022-11-11T18:46:52;7.50;99.90